Time;durP1;ratioP1;P1;durP2;ratioP2;P2;SDS_P1;SDS_P2;PMS_P1;PMS_P2;Temp;Humidity;BMP_temperature;BMP_pressure;BME280_temperature;BME280_humidity;BME280_pressure;Samples;Min_cycle;Max_cycle;Signal;HPM_P1;HPM_P2
2022/06/29 00:01:55;;;;;;;2.17;1.50;;;18.70;99.90;;;;;;5016992;28;20236;-78
2022/06/29 00:04:20;;;;;;;1.80;1.70;;;18.70;99.90;;;;;;5033638;28;20579;-77
2022/06/29 00:06:46;;;;;;;2.53;1.70;;;18.70;99.90;;;;;;5033729;28;20174;-77
2022/06/29 00:09:11;;;;;;;1.80;1.70;;;18.70;99.90;;;;;;5033368;28;20297;-77
2022/06/29 00:11:37;;;;;;;1.93;1.70;;;18.80;99.90;;;;;;5033499;28;20175;-78
2022/06/29 00:14:03;;;;;;;2.90;1.87;;;18.80;99.90;;;;;;5016737;28;20175;-77
2022/06/29 00:16:28;;;;;;;1.90;1.80;;;18.70;99.90;;;;;;5017059;28;20178;-77
2022/06/29 00:18:54;;;;;;;2.20;1.70;;;18.70;99.90;;;;;;5033452;28;20213;-77
2022/06/29 00:21:20;;;;;;;1.70;1.60;;;18.70;99.90;;;;;;5017114;28;20225;-78
2022/06/29 00:23:45;;;;;;;2.90;1.97;;;18.60;99.90;;;;;;5033258;28;20178;-77
2022/06/29 00:26:11;;;;;;;1.70;1.60;;;18.60;99.90;;;;;;5033385;28;20186;-77
2022/06/29 00:28:36;;;;;;;1.97;1.77;;;18.60;99.90;;;;;;5016775;28;20198;-77
2022/06/29 00:31:02;;;;;;;2.23;1.87;;;18.50;99.90;;;;;;5033118;28;20174;-78
2022/06/29 00:33:28;;;;;;;1.83;1.70;;;18.60;99.90;;;;;;5032056;28;20178;-78
2022/06/29 00:35:53;;;;;;;3.30;1.80;;;18.70;99.90;;;;;;5016831;28;20193;-77
2022/06/29 00:38:19;;;;;;;1.77;1.67;;;18.80;99.90;;;;;;5016377;28;20182;-77
2022/06/29 00:40:44;;;;;;;3.07;1.73;;;18.70;99.90;;;;;;5016381;28;20214;-77
2022/06/29 00:43:11;;;;;;;3.00;1.80;;;18.70;99.90;;;;;;5032870;28;20185;-77
2022/06/29 00:46:13;;;;;;;1.92;1.70;;;18.80;99.90;;;;;;5032804;28;20206;-78
2022/06/29 00:48:39;;;;;;;2.40;1.60;;;18.80;99.90;;;;;;5016389;28;20198;-77
2022/06/29 00:51:07;;;;;;;2.53;1.80;;;18.80;99.90;;;;;;5016370;28;20201;-77
2022/06/29 00:53:37;;;;;;;1.67;1.57;;;18.80;99.90;;;;;;5016037;28;20301;-78
2022/06/29 00:56:07;;;;;;;1.80;1.70;;;18.70;99.90;;;;;;5016320;28;20182;-77
2022/06/29 00:58:33;;;;;;;1.70;1.60;;;18.60;99.90;;;;;;5016024;28;20289;-77
2022/06/29 01:01:03;;;;;;;1.80;1.70;;;18.60;99.90;;;;;;5016417;28;20196;-78
2022/06/29 01:03:30;;;;;;;1.93;1.70;;;18.60;99.90;;;;;;5032598;28;20202;-78
2022/06/29 01:05:55;;;;;;;3.13;1.67;;;18.60;99.90;;;;;;5014362;28;20700;-77
2022/06/29 01:08:21;;;;;;;1.88;1.77;;;18.60;99.90;;;;;;5032454;28;20260;-77
2022/06/29 01:10:47;;;;;;;2.00;1.80;;;18.50;99.90;;;;;;5032610;28;20261;-77
2022/06/29 01:13:12;;;;;;;2.43;2.00;;;18.40;99.90;;;;;;5032142;28;20186;-77
2022/06/29 01:15:39;;;;;;;2.22;1.90;;;18.30;99.90;;;;;;5015806;28;20177;-77
2022/06/29 01:18:04;;;;;;;1.80;1.67;;;18.30;99.90;;;;;;5032252;28;20236;-77
2022/06/29 01:20:30;;;;;;;2.40;1.63;;;18.40;99.90;;;;;;5032237;28;20183;-77
2022/06/29 01:22:56;;;;;;;4.13;2.27;;;18.40;99.90;;;;;;5015712;28;20540;-77
2022/06/29 01:25:21;;;;;;;1.77;1.63;;;18.40;99.90;;;;;;5015540;28;20202;-77
2022/06/29 01:27:47;;;;;;;1.90;1.80;;;18.20;99.90;;;;;;5015447;28;20220;-77
2022/06/29 01:30:13;;;;;;;2.23;1.90;;;18.30;99.90;;;;;;5015581;28;20241;-77
2022/06/29 01:32:39;;;;;;;1.70;1.60;;;18.10;99.90;;;;;;4998935;28;20178;-78
2022/06/29 01:35:16;;;;;;;2.13;1.93;;;18.10;99.90;;;;;;5015423;28;20189;-77
2022/06/29 01:37:42;;;;;;;2.17;1.90;;;18.00;99.90;;;;;;5015716;28;20621;-77
2022/06/29 01:40:09;;;;;;;2.40;1.73;;;18.00;99.90;;;;;;5031789;28;20197;-77
2022/06/29 01:42:35;;;;;;;2.00;1.80;;;17.90;99.90;;;;;;5015239;28;20265;-78
2022/06/29 01:45:01;;;;;;;1.93;1.83;;;17.90;99.90;;;;;;5031821;28;20206;-77
2022/06/29 01:48:05;;;;;;;2.07;1.87;;;17.80;99.90;;;;;;5015256;28;20204;-77
2022/06/29 01:50:30;;;;;;;2.43;2.10;;;17.60;99.90;;;;;;5032187;28;20189;-77
2022/06/29 01:52:56;;;;;;;3.83;1.90;;;17.60;99.90;;;;;;5031066;28;20175;-78
2022/06/29 01:55:21;;;;;;;2.07;1.97;;;17.70;99.90;;;;;;5014816;28;20190;-78
2022/06/29 01:57:47;;;;;;;2.00;1.90;;;17.70;99.90;;;;;;5014782;28;20182;-78
2022/06/29 02:00:13;;;;;;;2.03;1.83;;;17.50;99.90;;;;;;5014609;28;20620;-77
2022/06/29 02:02:39;;;;;;;3.63;2.40;;;17.50;99.90;;;;;;5014585;28;20178;-78
2022/06/29 02:05:05;;;;;;;2.23;2.07;;;17.50;99.90;;;;;;5031164;28;20210;-77
2022/06/29 02:07:30;;;;;;;2.00;1.90;;;17.50;99.90;;;;;;5031130;28;20175;-78
2022/06/29 02:09:56;;;;;;;3.13;2.20;;;17.60;99.90;;;;;;5030898;28;20225;-78
2022/06/29 02:12:21;;;;;;;3.30;2.17;;;17.60;99.90;;;;;;5014510;28;20186;-78
2022/06/29 02:14:47;;;;;;;2.07;1.90;;;17.70;99.90;;;;;;5031072;28;20178;-78
2022/06/29 02:17:13;;;;;;;2.23;2.00;;;17.80;99.90;;;;;;5032057;28;20178;-78
2022/06/29 02:19:39;;;;;;;2.47;2.27;;;17.70;99.90;;;;;;5014365;28;20676;-78
2022/06/29 02:22:05;;;;;;;2.10;1.90;;;17.60;99.90;;;;;;5014048;28;20252;-78
2022/06/29 02:24:30;;;;;;;2.17;1.97;;;17.60;99.90;;;;;;5030835;28;20363;-78
2022/06/29 02:26:57;;;;;;;1.90;1.80;;;17.70;99.90;;;;;;5014280;28;20186;-78
2022/06/29 02:29:22;;;;;;;2.40;2.03;;;17.70;99.90;;;;;;5014367;28;20205;-78
2022/06/29 02:34:44;;;;;;;2.50;2.30;;;17.50;99.90;;;;;;5031392;28;20253;-78
2022/06/29 02:37:14;;;;;;;2.83;2.30;;;17.30;99.90;;;;;;5016021;28;20182;-78
2022/06/29 02:39:42;;;;;;;2.50;2.30;;;17.20;99.90;;;;;;5031871;28;20202;-78
2022/06/29 02:42:09;;;;;;;2.87;2.37;;;17.30;99.90;;;;;;5030508;28;20185;-78
2022/06/29 02:44:35;;;;;;;2.50;2.30;;;17.30;99.90;;;;;;5030516;28;20647;-78
2022/06/29 02:47:01;;;;;;;2.50;2.20;;;17.20;99.90;;;;;;5030193;28;20269;-78
2022/06/29 02:49:26;;;;;;;2.60;2.40;;;17.10;99.90;;;;;;5014090;28;20209;-78
2022/06/29 02:51:52;;;;;;;2.40;2.20;;;17.00;99.90;;;;;;5031532;28;20221;-77
2022/06/29 02:54:18;;;;;;;2.90;2.60;;;17.00;99.90;;;;;;5014011;28;20568;-78
2022/06/29 02:56:43;;;;;;;2.70;2.50;;;17.00;99.90;;;;;;5033779;28;20191;-77
2022/06/29 02:59:09;;;;;;;2.47;2.27;;;16.90;99.90;;;;;;5017758;28;20246;-77
2022/06/29 03:01:35;;;;;;;2.47;2.27;;;16.90;99.90;;;;;;5018075;28;20194;-77
2022/06/29 03:04:00;;;;;;;3.37;2.60;;;16.90;99.90;;;;;;5033964;28;20269;-77
2022/06/29 03:06:26;;;;;;;2.80;2.47;;;16.80;99.90;;;;;;5032790;28;20186;-77
2022/06/29 03:08:51;;;;;;;3.50;2.73;;;16.80;99.90;;;;;;5018116;28;20340;-77
2022/06/29 03:11:17;;;;;;;2.80;2.60;;;16.70;99.90;;;;;;5034470;28;20179;-77
2022/06/29 03:13:43;;;;;;;2.80;2.60;;;16.80;99.90;;;;;;5034446;28;20198;-77
2022/06/29 03:16:08;;;;;;;3.00;2.80;;;16.80;99.90;;;;;;5018108;28;20556;-77
2022/06/29 03:18:34;;;;;;;3.13;2.83;;;16.90;99.90;;;;;;5017993;28;20218;-77
2022/06/29 03:20:59;;;;;;;3.10;2.80;;;16.90;99.90;;;;;;5034425;28;20182;-77
2022/06/29 03:23:25;;;;;;;3.60;2.87;;;16.90;99.90;;;;;;5017943;28;20652;-77
2022/06/29 03:25:51;;;;;;;3.03;2.83;;;16.80;99.90;;;;;;5034330;28;20263;-77
2022/06/29 03:28:16;;;;;;;3.07;2.87;;;16.70;99.90;;;;;;5018051;28;20198;-77
2022/06/29 03:30:42;;;;;;;3.40;2.77;;;16.80;99.90;;;;;;5034496;28;20183;-77
2022/06/29 03:33:08;;;;;;;2.97;2.77;;;16.80;99.90;;;;;;5017463;28;20178;-77
2022/06/29 03:35:33;;;;;;;2.80;2.60;;;16.90;99.90;;;;;;5017650;28;20189;-77
2022/06/29 03:37:59;;;;;;;2.83;2.63;;;17.00;99.90;;;;;;5017718;28;20194;-77
2022/06/29 03:40:25;;;;;;;3.00;2.80;;;17.00;99.90;;;;;;5017440;28;20230;-77
2022/06/29 03:42:51;;;;;;;4.43;2.70;;;16.80;99.90;;;;;;5034994;28;20178;-77
2022/06/29 03:45:17;;;;;;;2.93;2.63;;;16.80;99.90;;;;;;5017335;28;20206;-77
2022/06/29 03:47:56;;;;;;;4.13;3.00;;;16.90;99.90;;;;;;5017114;28;20201;-77
2022/06/29 03:50:21;;;;;;;2.73;2.53;;;17.00;99.90;;;;;;5056392;22;20225;-76
2022/06/29 03:52:49;;;;;;;2.90;2.60;;;17.00;99.90;;;;;;5056877;28;20168;-76
2022/06/29 03:55:15;;;;;;;3.07;2.77;;;16.90;99.90;;;;;;5040781;28;20199;-76
2022/06/29 03:57:41;;;;;;;3.27;2.70;;;17.10;99.90;;;;;;5039902;28;20718;-76
2022/06/29 04:00:09;;;;;;;3.30;2.60;;;17.10;99.90;;;;;;5040130;28;20204;-77
2022/06/29 04:02:35;;;;;;;3.23;2.90;;;17.20;99.90;;;;;;5056320;28;20241;-77
2022/06/29 04:05:02;;;;;;;2.90;2.70;;;17.10;99.90;;;;;;5039774;28;20303;-77
2022/06/29 04:07:28;;;;;;;3.67;2.70;;;17.20;99.90;;;;;;5022811;28;20550;-77
2022/06/29 04:09:59;;;;;;;3.57;3.10;;;17.20;99.90;;;;;;5039598;28;20193;-77
2022/06/29 04:12:30;;;;;;;3.07;2.87;;;17.10;99.90;;;;;;5024989;28;20196;-77
2022/06/29 04:14:57;;;;;;;3.27;2.83;;;17.10;99.90;;;;;;5040262;28;20177;-77
2022/06/29 04:17:23;;;;;;;2.80;2.60;;;17.10;99.90;;;;;;5056530;28;20674;-77
2022/06/29 04:19:51;;;;;;;2.83;2.63;;;17.20;99.90;;;;;;5023321;28;20339;-77
2022/06/29 04:22:17;;;;;;;2.60;2.40;;;17.20;99.90;;;;;;5055958;28;20230;-77
2022/06/29 04:24:43;;;;;;;2.70;2.33;;;17.20;99.90;;;;;;5055897;28;20200;-76
2022/06/29 04:27:09;;;;;;;2.97;2.60;;;17.30;99.90;;;;;;5039439;28;20173;-77
2022/06/29 04:29:35;;;;;;;3.13;2.50;;;17.30;99.90;;;;;;5022745;28;20215;-77
2022/06/29 04:32:01;;;;;;;4.33;2.80;;;17.30;99.90;;;;;;5039409;28;20173;-77
2022/06/29 04:34:27;;;;;;;2.90;2.70;;;17.20;99.90;;;;;;5022754;28;20196;-76
2022/06/29 04:36:52;;;;;;;3.50;2.60;;;17.20;99.90;;;;;;5023006;28;20181;-77
2022/06/29 04:39:18;;;;;;;2.93;2.63;;;17.20;99.90;;;;;;5055669;28;20193;-77
2022/06/29 04:41:43;;;;;;;2.83;2.63;;;17.30;99.90;;;;;;5055580;28;20173;-77
2022/06/29 04:44:09;;;;;;;2.93;2.73;;;17.40;99.90;;;;;;5022472;28;20208;-76
2022/06/29 04:46:35;;;;;;;3.53;2.60;;;17.50;99.90;;;;;;5038807;28;20177;-76
2022/06/29 04:49:02;;;;;;;2.73;2.53;;;17.60;99.90;;;;;;5039138;28;20165;-76
2022/06/29 04:51:29;;;;;;;3.23;2.43;;;17.80;99.90;;;;;;5073880;28;20191;-76
2022/06/29 04:53:56;;;;;;;2.70;2.50;;;17.90;99.90;;;;;;5055641;28;20208;-76
2022/06/29 04:56:29;;;;;;;2.50;2.30;;;18.00;99.90;;;;;;5038965;28;20174;-76
2022/06/29 04:58:57;;;;;;;3.20;2.70;;;18.30;99.90;;;;;;5055817;28;20169;-77
2022/06/29 05:01:24;;;;;;;3.30;3.00;;;18.40;99.90;;;;;;5055195;28;20173;-76
2022/06/29 05:03:50;;;;;;;3.00;2.70;;;18.30;99.90;;;;;;5055552;28;20169;-76
2022/06/29 05:06:16;;;;;;;2.63;2.43;;;18.20;99.90;;;;;;5055384;28;20181;-76
2022/06/29 05:08:42;;;;;;;3.30;3.00;;;18.00;99.90;;;;;;5056038;28;20181;-76
2022/06/29 05:11:08;;;;;;;2.90;2.70;;;18.10;99.90;;;;;;5055777;28;20197;-76
2022/06/29 05:13:34;;;;;;;3.57;3.00;;;18.10;99.90;;;;;;5038892;28;20676;-75
2022/06/29 05:15:59;;;;;;;3.70;2.83;;;17.80;99.90;;;;;;5072587;28;20267;-76
2022/06/29 05:18:26;;;;;;;3.33;3.03;;;17.60;99.90;;;;;;5022364;28;20177;-76
2022/06/29 05:20:52;;;;;;;2.87;2.63;;;17.40;99.90;;;;;;5022722;28;20196;-76
2022/06/29 05:23:18;;;;;;;3.20;2.90;;;17.40;99.90;;;;;;5055279;28;20177;-76
2022/06/29 05:25:44;;;;;;;2.70;2.50;;;17.60;99.90;;;;;;5055514;28;20225;-76
2022/06/29 05:28:11;;;;;;;3.00;2.70;;;17.80;99.90;;;;;;5055672;28;20215;-76
2022/06/29 05:30:37;;;;;;;2.97;2.77;;;17.90;99.90;;;;;;5022508;28;20674;-76
2022/06/29 05:33:03;;;;;;;3.03;2.80;;;18.00;99.90;;;;;;5038429;28;20635;-76
2022/06/29 05:35:29;;;;;;;3.23;2.73;;;18.00;99.90;;;;;;5038486;28;20184;-76
2022/06/29 05:37:55;;;;;;;3.23;2.93;;;18.00;99.90;;;;;;5022286;28;20181;-75
2022/06/29 05:40:21;;;;;;;3.00;2.80;;;18.20;99.90;;;;;;5055048;28;20193;-76
2022/06/29 05:42:46;;;;;;;3.23;2.80;;;18.40;99.90;;;;;;5071957;28;20184;-76
2022/06/29 05:45:12;;;;;;;3.17;2.90;;;18.60;99.90;;;;;;5021910;28;20628;-76
2022/06/29 05:50:59;;;;;;;3.00;2.80;;;18.80;99.90;;;;;;5067471;28;20240;-76
2022/06/29 05:53:25;;;;;;;4.30;2.80;;;18.80;99.90;;;;;;5051621;28;20197;-76
2022/06/29 05:55:50;;;;;;;3.33;2.80;;;18.80;99.90;;;;;;5035208;28;20659;-76
2022/06/29 05:58:19;;;;;;;3.10;2.50;;;18.90;99.90;;;;;;5035321;28;20531;-76
2022/06/29 06:00:45;;;;;;;2.97;2.70;;;19.00;99.90;;;;;;5035243;28;20251;-77
2022/06/29 06:03:10;;;;;;;2.83;2.53;;;19.00;99.90;;;;;;5034998;28;20224;-76
2022/06/29 06:05:36;;;;;;;3.23;2.93;;;18.90;99.90;;;;;;5034807;28;20233;-76
2022/06/29 06:08:02;;;;;;;3.30;3.00;;;19.00;99.90;;;;;;5034858;28;20635;-77
2022/06/29 06:10:27;;;;;;;4.73;3.03;;;18.90;99.90;;;;;;5035177;28;20267;-77
2022/06/29 06:12:53;;;;;;;2.93;2.70;;;19.00;99.90;;;;;;5051496;28;20544;-77
2022/06/29 06:15:18;;;;;;;2.87;2.57;;;19.00;99.90;;;;;;5051481;28;20181;-76
2022/06/29 06:17:44;;;;;;;3.40;3.10;;;19.20;99.90;;;;;;5034975;28;20185;-77
2022/06/29 06:20:10;;;;;;;3.80;3.20;;;19.30;99.90;;;;;;5051300;28;20197;-76
2022/06/29 06:22:36;;;;;;;3.40;2.70;;;19.30;99.90;;;;;;5042727;28;20179;-77
2022/06/29 06:25:01;;;;;;;3.60;2.83;;;19.30;99.90;;;;;;5014830;28;20233;-77
2022/06/29 06:27:27;;;;;;;3.03;2.73;;;19.40;99.90;;;;;;5031371;28;20213;-77
2022/06/29 06:29:53;;;;;;;3.00;2.70;;;19.50;99.90;;;;;;5031456;28;20244;-76
2022/06/29 06:32:18;;;;;;;3.27;2.87;;;19.50;99.90;;;;;;5019165;28;20618;-76
2022/06/29 06:34:44;;;;;;;4.30;3.40;;;19.50;99.90;;;;;;5036579;28;20197;-76
2022/06/29 06:37:10;;;;;;;4.20;3.23;;;19.50;99.90;;;;;;5035282;28;20213;-76
2022/06/29 06:39:36;;;;;;;3.17;2.87;;;19.30;99.90;;;;;;5035248;28;20267;-76
2022/06/29 06:42:02;;;;;;;3.53;3.23;;;19.50;99.90;;;;;;5018839;28;20563;-76
2022/06/29 06:44:28;;;;;;;3.30;3.10;;;19.60;99.90;;;;;;5035420;28;20217;-76
2022/06/29 06:47:31;;;;;;;3.50;3.20;;;19.70;99.90;;;;;;5051843;28;20174;-76
2022/06/29 06:49:56;;;;;;;3.45;3.15;;;19.90;99.90;;;;;;5035037;28;20270;-76
2022/06/29 06:52:22;;;;;;;4.78;2.90;;;20.00;99.90;;;;;;5018633;28;20285;-76
2022/06/29 06:54:47;;;;;;;3.70;3.25;;;20.10;99.90;;;;;;5035268;28;20182;-76
2022/06/29 06:57:13;;;;;;;4.85;3.25;;;20.10;99.90;;;;;;5018659;28;20178;-76
2022/06/29 06:59:39;;;;;;;4.47;3.20;;;20.10;99.90;;;;;;5034835;28;20198;-76
2022/06/29 07:02:05;;;;;;;3.95;3.28;;;20.10;99.90;;;;;;5051487;28;20225;-76
2022/06/29 07:04:31;;;;;;;3.13;2.83;;;20.10;99.90;;;;;;5051615;28;20194;-76
2022/06/29 07:06:57;;;;;;;3.60;3.10;;;20.10;99.90;;;;;;5034616;28;20175;-76
2022/06/29 07:09:22;;;;;;;3.40;3.10;;;20.20;99.90;;;;;;5034761;28;20199;-76
2022/06/29 07:11:48;;;;;;;3.20;3.00;;;20.20;99.90;;;;;;5034588;28;20193;-76
2022/06/29 07:14:13;;;;;;;5.53;3.35;;;20.20;99.90;;;;;;5034873;28;20265;-77
2022/06/29 07:16:39;;;;;;;5.30;3.10;;;20.10;99.90;;;;;;5034775;28;20265;-76
2022/06/29 07:19:05;;;;;;;4.85;2.92;;;20.00;99.90;;;;;;5034576;28;20583;-76
2022/06/29 07:21:30;;;;;;;3.10;2.80;;;19.80;99.90;;;;;;5018251;28;20179;-76
2022/06/29 07:23:58;;;;;;;5.13;3.28;;;19.80;99.90;;;;;;5018174;28;20209;-76
2022/06/29 07:26:25;;;;;;;3.38;3.08;;;19.80;99.90;;;;;;5018494;28;20193;-76
2022/06/29 07:28:51;;;;;;;4.93;2.85;;;19.80;99.90;;;;;;5034398;28;20212;-76
2022/06/29 07:31:16;;;;;;;3.80;2.97;;;19.70;99.90;;;;;;5035445;28;20236;-76
2022/06/29 07:33:42;;;;;;;3.75;3.08;;;19.70;99.90;;;;;;5034297;28;20175;-75
2022/06/29 07:36:07;;;;;;;4.18;2.97;;;19.70;99.90;;;;;;5017660;28;20598;-75
2022/06/29 07:38:34;;;;;;;3.33;3.03;;;19.90;99.90;;;;;;5050883;28;20228;-76
2022/06/29 07:41:01;;;;;;;3.65;2.97;;;20.10;99.90;;;;;;5034330;28;20201;-75
2022/06/29 07:43:27;;;;;;;3.17;2.88;;;20.50;99.90;;;;;;5050525;28;20209;-76
2022/06/29 07:46:26;;;;;;;3.50;3.17;;;20.80;99.90;;;;;;5034012;28;20205;-75
2022/06/29 07:48:51;;;;;;;4.20;3.30;;;20.90;99.90;;;;;;5033908;28;20194;-78
2022/06/29 07:51:17;;;;;;;3.20;2.90;;;21.00;99.90;;;;;;5017755;28;20249;-77
2022/06/29 07:53:42;;;;;;;4.00;3.53;;;21.10;99.90;;;;;;5033621;28;20183;-76
2022/06/29 07:56:08;;;;;;;3.70;3.30;;;21.20;99.90;;;;;;5017311;28;20181;-75
2022/06/29 07:58:34;;;;;;;4.63;3.17;;;21.30;99.90;;;;;;5033739;28;20750;-75
2022/06/29 08:00:59;;;;;;;3.33;3.00;;;21.40;99.90;;;;;;5017179;28;20217;-76
2022/06/29 08:03:25;;;;;;;6.00;2.95;;;21.80;99.90;;;;;;5033752;28;20181;-76
2022/06/29 08:05:51;;;;;;;3.70;3.40;;;22.00;99.90;;;;;;5033700;28;20236;-76
2022/06/29 08:08:17;;;;;;;3.58;3.28;;;22.30;99.90;;;;;;5033610;28;20175;-76
2022/06/29 08:10:42;;;;;;;3.47;3.17;;;22.60;99.90;;;;;;5017426;28;20198;-76
2022/06/29 08:13:08;;;;;;;3.78;3.38;;;22.90;99.90;;;;;;5033511;28;20182;-76
2022/06/29 08:15:35;;;;;;;3.63;3.33;;;22.90;99.90;;;;;;5049960;28;20194;-76
2022/06/29 08:18:00;;;;;;;3.50;3.20;;;23.00;99.90;;;;;;5017338;28;20189;-76
2022/06/29 08:20:28;;;;;;;3.78;3.47;;;23.00;99.90;;;;;;5016929;28;20198;-76
2022/06/29 08:22:54;;;;;;;4.18;3.30;;;23.20;99.90;;;;;;5034498;28;20167;-76
2022/06/29 08:25:19;;;;;;;3.40;3.10;;;23.40;99.90;;;;;;5033196;28;20209;-76
2022/06/29 08:27:52;;;;;;;4.22;3.80;;;23.70;99.90;;;;;;5033174;28;20178;-76
2022/06/29 08:30:18;;;;;;;3.55;3.25;;;23.80;99.90;;;;;;5050033;28;20209;-76
2022/06/29 08:32:44;;;;;;;4.07;3.67;;;23.90;99.90;;;;;;5033384;28;20174;-76
2022/06/29 08:35:11;;;;;;;5.43;3.45;;;24.00;99.90;;;;;;5034209;28;20220;-76
2022/06/29 08:37:38;;;;;;;3.70;3.40;;;24.00;99.90;;;;;;5049922;28;20182;-76
2022/06/29 08:40:07;;;;;;;3.78;3.30;;;24.20;99.90;;;;;;5033063;28;20194;-76
2022/06/29 08:42:36;;;;;;;3.70;3.22;;;24.30;99.90;;;;;;5032805;28;20178;-75
2022/06/29 08:45:07;;;;;;;4.20;3.05;;;24.50;99.90;;;;;;5032959;28;20202;-76
2022/06/29 08:47:33;;;;;;;3.20;3.00;;;24.80;99.90;;;;;;5049437;28;20214;-76
2022/06/29 08:49:58;;;;;;;3.17;2.88;;;24.90;99.90;;;;;;5032783;28;20202;-76
2022/06/29 08:52:28;;;;;;;2.90;2.60;;;24.90;99.90;;;;;;5032455;28;20201;-76
2022/06/29 08:54:54;;;;;;;3.22;2.92;;;25.00;99.90;;;;;;5032774;28;20182;-76
2022/06/29 08:57:21;;;;;;;3.20;2.90;;;25.00;99.60;;;;;;5049453;28;20178;-77
2022/06/29 08:59:51;;;;;;;2.80;2.60;;;25.10;99.00;;;;;;5032873;28;20199;-77
2022/06/29 09:02:16;;;;;;;3.40;2.90;;;25.30;99.90;;;;;;5049300;28;20540;-76
2022/06/29 09:04:42;;;;;;;3.50;2.90;;;25.40;99.00;;;;;;5032458;28;20202;-77
2022/06/29 09:07:08;;;;;;;2.90;2.65;;;25.60;98.50;;;;;;5032436;28;20182;-76
2022/06/29 09:09:56;;;;;;;3.47;2.85;;;25.70;98.50;;;;;;5033585;28;20189;-77
2022/06/29 09:13:08;;;;;;;3.95;2.95;;;25.80;99.90;;;;;;5049102;28;20177;-77
2022/06/29 09:15:41;;;;;;;3.45;3.15;;;26.10;98.00;;;;;;5048975;28;20603;-76
2022/06/29 09:18:30;;;;;;;3.10;2.80;;;26.40;99.60;;;;;;5033709;28;20543;-77
2022/06/29 09:20:58;;;;;;;3.22;2.80;;;26.50;98.20;;;;;;5032168;28;20186;-77
2022/06/29 09:23:24;;;;;;;2.83;2.53;;;26.90;96.40;;;;;;5032105;28;20170;-77
2022/06/29 09:25:50;;;;;;;3.53;2.70;;;27.00;92.80;;;;;;5033334;28;20194;-77
2022/06/29 09:28:31;;;;;;;3.28;2.97;;;27.20;92.80;;;;;;5032382;28;20198;-77
2022/06/29 09:30:58;;;;;;;3.17;2.88;;;27.20;91.70;;;;;;5033118;28;20194;-76
2022/06/29 09:33:30;;;;;;;3.50;3.20;;;26.70;91.80;;;;;;5032331;28;20175;-77
2022/06/29 09:36:08;;;;;;;4.03;3.00;;;26.70;93.70;;;;;;5016044;28;20233;-76
2022/06/29 09:38:34;;;;;;;3.20;2.80;;;26.50;93.20;;;;;;5048472;28;20198;-76
2022/06/29 09:41:05;;;;;;;3.42;3.13;;;26.50;94.60;;;;;;5032125;28;20198;-78
2022/06/29 09:43:32;;;;;;;4.15;3.22;;;26.50;96.80;;;;;;5031891;28;20175;-76
2022/06/29 09:46:00;;;;;;;4.25;3.10;;;26.80;94.90;;;;;;5032962;28;20676;-76
2022/06/29 09:48:27;;;;;;;3.22;3.03;;;26.90;94.30;;;;;;5015849;28;20665;-77
2022/06/29 09:50:53;;;;;;;3.85;2.95;;;26.70;94.50;;;;;;5074393;23;20255;-75
2022/06/29 09:53:39;;;;;;;3.58;3.15;;;26.90;95.20;;;;;;5050989;28;20204;-76
2022/06/29 09:56:09;;;;;;;3.20;3.00;;;27.00;94.50;;;;;;5034886;28;20181;-77
2022/06/29 09:58:37;;;;;;;4.07;3.30;;;27.10;94.80;;;;;;5034718;28;20220;-76
2022/06/29 10:03:52;;;;;;;3.92;3.25;;;27.70;94.50;;;;;;5051397;28;20272;-76
2022/06/29 10:06:18;;;;;;;3.92;3.20;;;27.80;94.20;;;;;;5033281;28;20206;-76
2022/06/29 10:08:45;;;;;;;3.38;3.13;;;28.10;92.60;;;;;;5035020;28;20181;-77
2022/06/29 10:14:35;;;;;;;3.45;3.15;;;28.30;92.60;;;;;;5053224;28;20176;-78
2022/06/29 10:17:25;;;;;;;3.40;3.10;;;28.10;92.90;;;;;;5051763;28;20192;-77
2022/06/29 10:20:05;;;;;;;3.70;3.40;;;28.00;92.80;;;;;;5051358;28;20610;-77
2022/06/29 10:22:31;;;;;;;4.47;3.28;;;28.60;93.50;;;;;;5051298;28;20210;-77
2022/06/29 10:25:09;;;;;;;5.18;3.40;;;28.70;90.20;;;;;;5034967;28;20202;-77
2022/06/29 10:27:34;;;;;;;3.80;3.40;;;28.60;91.50;;;;;;5051336;28;20166;-78
2022/06/29 10:30:21;;;;;;;3.40;3.10;;;28.10;92.10;;;;;;5051039;28;20263;-76
2022/06/29 10:32:47;;;;;;;4.65;3.20;;;27.70;93.20;;;;;;5051124;28;20170;-79
2022/06/29 10:35:13;;;;;;;3.75;3.45;;;27.40;94.40;;;;;;5052232;28;20274;-78
2022/06/29 10:37:59;;;;;;;4.28;3.60;;;27.30;95.90;;;;;;5034704;28;20593;-79
2022/06/29 10:40:27;;;;;;;3.40;3.20;;;27.30;95.60;;;;;;5055840;28;20209;-78
2022/06/29 10:43:07;;;;;;;3.50;3.20;;;27.40;95.90;;;;;;5056714;28;20219;-79
2022/06/29 10:45:35;;;;;;;5.50;3.53;;;27.40;96.10;;;;;;5040857;28;20205;-79
2022/06/29 10:48:06;;;;;;;3.55;3.22;;;27.60;97.00;;;;;;5057425;28;20166;-79
2022/06/29 10:50:33;;;;;;;3.83;3.53;;;28.10;96.30;;;;;;5056763;28;20594;-79
2022/06/29 10:53:11;;;;;;;3.30;3.10;;;28.50;93.80;;;;;;5041764;28;20177;-79
2022/06/29 10:55:51;;;;;;;3.72;3.05;;;28.50;97.00;;;;;;5056674;28;20181;-79
2022/06/29 10:58:17;;;;;;;5.18;3.42;;;28.50;95.50;;;;;;5056397;28;20185;-79
2022/06/29 11:00:53;;;;;;;3.13;2.90;;;28.70;94.70;;;;;;5038098;28;20280;-79
2022/06/29 11:03:25;;;;;;;3.47;3.17;;;28.70;94.60;;;;;;5054320;28;20177;-79
2022/06/29 11:16:55;;;;;;;3.47;3.10;;;28.50;94.50;;;;;;5058715;28;20177;-80
2022/06/29 11:19:28;;;;;;;4.30;2.97;;;28.30;96.90;;;;;;5044437;28;20245;-79
2022/06/29 11:22:11;;;;;;;3.60;3.22;;;28.20;97.10;;;;;;5044875;28;20181;-80
2022/06/29 11:24:53;;;;;;;3.00;2.80;;;28.30;98.20;;;;;;5061821;28;20196;-79
2022/06/29 11:27:52;;;;;;;3.90;2.92;;;28.20;97.20;;;;;;5043821;28;20215;-79
2022/06/29 11:30:22;;;;;;;4.22;3.15;;;28.10;99.80;;;;;;5000224;28;20201;-79
2022/06/29 11:32:49;;;;;;;3.20;2.88;;;28.00;97.10;;;;;;5042185;28;20711;-79
2022/06/29 11:35:23;;;;;;;3.15;2.92;;;28.10;98.70;;;;;;5059708;28;20170;-79
2022/06/29 11:37:54;;;;;;;3.50;3.08;;;28.10;98.10;;;;;;5043090;28;20197;-79
2022/06/29 11:40:30;;;;;;;2.70;2.50;;;28.80;97.50;;;;;;5043951;28;20201;-80
2022/06/29 11:43:11;;;;;;;3.58;2.88;;;29.20;96.40;;;;;;5045192;28;20251;-79
2022/06/29 11:45:48;;;;;;;3.30;3.00;;;29.30;95.80;;;;;;5059560;28;20224;-79
2022/06/29 11:48:13;;;;;;;3.70;3.20;;;29.30;95.80;;;;;;5059334;28;20173;-79
2022/06/29 11:50:59;;;;;;;3.30;2.97;;;28.80;94.80;;;;;;5059456;28;20297;-79
2022/06/29 11:53:54;;;;;;;3.30;2.78;;;28.80;96.20;;;;;;5043692;28;20173;-80
2022/06/29 11:56:23;;;;;;;3.30;3.00;;;28.90;98.40;;;;;;5044884;28;20220;-79
2022/06/29 11:58:55;;;;;;;4.28;2.80;;;29.00;97.50;;;;;;5044644;28;20178;-80
2022/06/29 12:01:26;;;;;;;3.00;2.70;;;29.00;95.70;;;;;;5043953;28;20193;-79
2022/06/29 12:03:52;;;;;;;3.33;2.95;;;28.90;94.60;;;;;;5039352;28;20201;-78
2022/06/29 12:06:19;;;;;;;4.30;2.90;;;28.60;95.50;;;;;;5052998;28;20201;-78
2022/06/29 12:08:45;;;;;;;3.20;2.90;;;28.90;95.60;;;;;;5052960;28;20235;-78
2022/06/29 12:11:11;;;;;;;3.80;2.97;;;28.60;95.80;;;;;;5053069;28;20655;-77
2022/06/29 12:13:37;;;;;;;3.38;2.95;;;29.00;96.40;;;;;;5053061;28;20176;-78
2022/06/29 12:16:03;;;;;;;3.20;2.90;;;29.00;96.20;;;;;;5053806;28;20269;-78
2022/06/29 12:18:30;;;;;;;3.40;2.60;;;29.00;96.70;;;;;;5037139;28;20181;-78
2022/06/29 12:20:55;;;;;;;4.43;2.70;;;28.70;95.60;;;;;;5036602;28;20202;-78
2022/06/29 12:23:21;;;;;;;5.50;2.60;;;28.60;95.70;;;;;;5052017;28;20186;-78
2022/06/29 12:25:46;;;;;;;2.92;2.67;;;29.10;96.20;;;;;;5037003;28;20197;-79
2022/06/29 12:28:12;;;;;;;5.53;2.38;;;29.50;94.50;;;;;;5036603;28;20197;-79
2022/06/29 12:30:38;;;;;;;2.90;2.55;;;29.90;94.70;;;;;;5037641;28;20269;-79
2022/06/29 12:33:09;;;;;;;2.80;2.60;;;30.10;92.60;;;;;;5037480;28;20574;-78
2022/06/29 12:35:36;;;;;;;3.58;2.67;;;29.90;92.80;;;;;;5038450;28;20181;-79
2022/06/29 12:38:02;;;;;;;3.28;2.80;;;30.10;94.70;;;;;;5039318;28;20177;-79
2022/06/29 12:40:29;;;;;;;4.45;2.63;;;29.80;93.80;;;;;;5054666;28;20575;-79
2022/06/29 12:42:55;;;;;;;2.80;2.60;;;29.60;93.10;;;;;;5037266;28;20185;-79
2022/06/29 12:45:21;;;;;;;3.53;2.70;;;29.40;94.70;;;;;;5037551;28;20202;-79
2022/06/29 12:47:47;;;;;;;3.03;2.65;;;29.20;96.00;;;;;;5037309;28;20554;-79
2022/06/29 12:50:13;;;;;;;3.17;2.88;;;29.20;96.50;;;;;;5037328;28;20210;-79
2022/06/29 12:52:42;;;;;;;3.10;2.83;;;29.20;96.50;;;;;;5036403;28;20178;-78
2022/06/29 12:55:10;;;;;;;3.40;2.92;;;28.80;95.00;;;;;;5036561;28;20181;-78
2022/06/29 12:57:36;;;;;;;3.25;2.95;;;28.70;95.10;;;;;;5036463;28;20188;-79
2022/06/29 13:00:03;;;;;;;3.53;2.90;;;28.70;95.70;;;;;;5036513;28;20201;-79
2022/06/29 13:02:30;;;;;;;4.13;2.80;;;28.60;97.00;;;;;;5035833;28;20258;-79
2022/06/29 13:04:56;;;;;;;4.95;3.10;;;28.40;97.00;;;;;;5036382;28;20232;-79
2022/06/29 13:07:26;;;;;;;3.80;2.90;;;28.40;99.60;;;;;;5052177;28;20193;-79
2022/06/29 13:09:52;;;;;;;3.30;2.83;;;28.20;99.90;;;;;;5036510;28;20190;-79
2022/06/29 13:12:18;;;;;;;3.20;2.90;;;28.20;98.80;;;;;;5035712;28;20181;-79
2022/06/29 13:14:44;;;;;;;2.95;2.75;;;28.20;99.90;;;;;;5052234;28;20231;-79
2022/06/29 13:17:09;;;;;;;4.03;2.80;;;28.30;99.90;;;;;;5035868;28;20178;-79